Time;durP1;ratioP1;P1;durP2;ratioP2;P2;SDS_P1;SDS_P2;PMS_P1;PMS_P2;Temp;Humidity;BMP_temperature;BMP_pressure;BME280_temperature;BME280_humidity;BME280_pressure;Samples;Min_cycle;Max_cycle;Signal;HPM_P1;HPM_P2
2022/12/17 13:07:23;;;;;;;25.80;15.23;;;-0.20;99.90;;;;;;5068392;28;20359;-84
2022/12/17 13:09:52;;;;;;;28.40;16.30;;;-0.20;99.90;;;;;;5073094;28;20712;-84
2022/12/17 13:12:31;;;;;;;24.35;16.38;;;-0.20;99.90;;;;;;5072531;28;20235;-84
2022/12/17 13:15:18;;;;;;;27.25;17.70;;;-0.20;99.90;;;;;;5071032;28;20308;-84
2022/12/17 13:17:57;;;;;;;26.45;17.85;;;-0.20;99.90;;;;;;5074039;28;20226;-84
2022/12/17 13:20:28;;;;;;;44.30;19.92;;;-0.30;99.90;;;;;;5068321;28;20651;-83
2022/12/17 13:23:26;;;;;;;27.00;17.05;;;-0.30;99.90;;;;;;5073284;28;20297;-84
2022/12/17 13:26:13;;;;;;;27.58;16.70;;;-0.40;99.90;;;;;;5071558;28;20235;-84
2022/12/17 13:28:40;;;;;;;38.85;19.60;;;-0.30;99.90;;;;;;5063022;28;20688;-83
2022/12/17 13:31:16;;;;;;;28.00;17.77;;;-0.10;99.90;;;;;;5069834;28;20240;-84
2022/12/17 13:33:48;;;;;;;33.15;18.50;;;-0.10;99.90;;;;;;5065895;28;20638;-84
2022/12/17 13:36:27;;;;;;;26.42;16.55;;;0.00;99.90;;;;;;5068512;28;20268;-84
2022/12/17 13:39:03;;;;;;;27.45;16.52;;;0.00;99.90;;;;;;5067819;28;20312;-84
2022/12/17 13:41:32;;;;;;;31.20;17.13;;;0.10;99.90;;;;;;5070032;28;20204;-84
2022/12/17 13:44:02;;;;;;;31.48;18.02;;;0.10;99.90;;;;;;5068268;28;20475;-84
2022/12/17 13:46:35;;;;;;;28.35;17.35;;;0.10;99.90;;;;;;5072754;28;20209;-86
2022/12/17 13:49:06;;;;;;;27.30;16.97;;;0.00;99.90;;;;;;5065606;28;20209;-85
2022/12/17 13:51:36;;;;;;;30.67;17.83;;;-0.10;99.90;;;;;;5067645;28;20794;-85
2022/12/17 13:54:04;;;;;;;32.13;21.47;;;-0.30;99.90;;;;;;5068491;28;20515;-86
2022/12/17 13:56:33;;;;;;;28.88;18.17;;;-0.40;99.90;;;;;;5068465;28;20562;-86
2022/12/17 13:59:02;;;;;;;28.63;18.33;;;-0.50;99.90;;;;;;5072520;28;20994;-84
2022/12/17 14:01:30;;;;;;;30.23;19.02;;;-0.50;99.90;;;;;;5064748;28;20863;-86
2022/12/17 14:03:58;;;;;;;25.35;17.00;;;-0.50;99.90;;;;;;5064164;28;20287;-83
2022/12/17 14:06:32;;;;;;;33.78;19.80;;;-0.50;99.90;;;;;;5064312;28;20251;-84
2022/12/17 14:09:01;;;;;;;30.80;18.80;;;-0.40;99.90;;;;;;5070702;28;20236;-85
2022/12/17 14:14:25;;;;;;;31.02;18.40;;;-0.50;99.90;;;;;;5068163;28;20457;-84
2022/12/17 14:16:52;;;;;;;26.00;17.80;;;-0.50;99.90;;;;;;5068633;28;20900;-87
2022/12/17 14:19:19;;;;;;;38.90;20.60;;;-0.40;99.90;;;;;;5069791;28;20492;-85
2022/12/17 14:21:46;;;;;;;37.55;22.80;;;-0.40;99.90;;;;;;5063142;28;20475;-86
2022/12/17 14:24:16;;;;;;;34.40;20.27;;;-0.50;99.90;;;;;;5066069;28;20216;-86
2022/12/17 14:26:50;;;;;;;32.87;18.00;;;-0.60;99.90;;;;;;5066856;28;20482;-85
2022/12/17 14:29:22;;;;;;;34.85;21.10;;;-0.70;99.90;;;;;;5064224;28;20599;-86
2022/12/17 14:31:53;;;;;;;28.60;18.90;;;-0.70;99.90;;;;;;5069861;28;20202;-86
2022/12/17 14:34:20;;;;;;;26.57;18.07;;;-0.80;99.90;;;;;;5062157;28;20506;-85
2022/12/17 14:36:47;;;;;;;31.70;19.95;;;-0.90;99.90;;;;;;5064520;28;20552;-85
2022/12/17 14:39:22;;;;;;;33.10;19.98;;;-0.90;99.90;;;;;;5071526;28;20318;-86
2022/12/17 14:44:38;;;;;;;43.83;20.07;;;-1.00;99.90;;;;;;5069818;28;20300;-86
2022/12/17 14:47:15;;;;;;;37.87;20.50;;;-1.00;99.90;;;;;;5070457;28;20543;-86
2022/12/17 14:49:54;;;;;;;35.60;19.10;;;-1.00;99.90;;;;;;5067757;28;20806;-86
2022/12/17 14:52:30;;;;;;;37.25;21.25;;;-1.10;99.90;;;;;;5066803;28;20208;-85
2022/12/17 14:54:58;;;;;;;37.03;20.17;;;-1.10;99.90;;;;;;5073987;28;20204;-85
2022/12/17 14:57:26;;;;;;;36.42;20.65;;;-1.10;99.90;;;;;;5066387;28;20389;-86
2022/12/17 14:59:53;;;;;;;29.27;19.67;;;-1.20;99.90;;;;;;5069843;28;20230;-86
2022/12/17 15:02:24;;;;;;;37.90;19.88;;;-1.20;99.90;;;;;;5066320;28;20204;-87
2022/12/17 15:04:53;;;;;;;31.23;19.93;;;-1.30;99.90;;;;;;5071063;28;20215;-87
2022/12/17 15:07:25;;;;;;;30.05;18.35;;;-1.20;99.90;;;;;;5069175;28;20870;-87
2022/12/17 15:09:53;;;;;;;37.20;21.23;;;-1.30;99.90;;;;;;5070224;28;20534;-86
2022/12/17 15:12:23;;;;;;;33.47;20.60;;;-1.40;99.90;;;;;;5072116;28;20236;-84
2022/12/17 15:14:51;;;;;;;29.92;19.30;;;-1.40;99.90;;;;;;5078034;28;20236;-84
2022/12/17 15:17:18;;;;;;;33.40;20.65;;;-1.50;99.90;;;;;;5066333;28;20212;-84
2022/12/17 15:19:45;;;;;;;32.72;19.40;;;-1.50;99.90;;;;;;5064848;28;20252;-84
2022/12/17 15:22:15;;;;;;;27.75;18.50;;;-1.50;99.90;;;;;;5067398;28;20227;-83
2022/12/17 15:24:42;;;;;;;41.40;24.50;;;-1.50;99.90;;;;;;5067359;28;20207;-83
2022/12/17 15:27:13;;;;;;;48.35;26.52;;;-1.60;99.90;;;;;;5067542;28;20217;-83
2022/12/17 15:29:41;;;;;;;41.97;25.80;;;-1.60;99.90;;;;;;5066897;28;20236;-85
2022/12/17 15:32:10;;;;;;;43.10;24.73;;;-1.60;99.90;;;;;;5070732;28;20226;-84
2022/12/17 15:34:40;;;;;;;43.05;23.60;;;-1.60;99.90;;;;;;5066590;28;20719;-88
2022/12/17 15:37:07;;;;;;;39.35;22.25;;;-1.60;99.90;;;;;;5066171;28;21708;-84
2022/12/17 15:39:34;;;;;;;40.47;24.00;;;-1.60;99.90;;;;;;5065361;28;20730;-84
2022/12/17 15:44:47;;;;;;;36.63;21.05;;;-1.70;99.90;;;;;;5067063;28;20245;-85
2022/12/17 15:47:14;;;;;;;38.08;22.52;;;-1.70;99.90;;;;;;5069589;28;20207;-84
2022/12/17 15:49:42;;;;;;;31.92;22.63;;;-1.80;99.90;;;;;;5066760;28;20632;-84
2022/12/17 15:52:09;;;;;;;40.15;22.55;;;-1.80;99.90;;;;;;5067647;28;20698;-84
2022/12/17 15:54:40;;;;;;;41.75;23.88;;;-1.80;99.90;;;;;;5066186;28;20236;-84
2022/12/17 15:57:07;;;;;;;43.90;24.70;;;-1.80;99.90;;;;;;5067693;28;20217;-84
2022/12/17 15:59:34;;;;;;;44.83;24.92;;;-1.90;99.90;;;;;;5064962;28;20381;-84
2022/12/17 16:02:02;;;;;;;44.80;26.73;;;-1.90;99.90;;;;;;5066566;28;20285;-84
2022/12/17 16:04:29;;;;;;;37.67;23.45;;;-1.90;99.90;;;;;;5064921;28;20441;-85
2022/12/17 16:06:56;;;;;;;35.05;21.95;;;-1.90;99.90;;;;;;5076187;28;20243;-84
2022/12/17 16:09:25;;;;;;;36.95;23.83;;;-1.80;99.90;;;;;;5065988;28;20252;-85
2022/12/17 16:11:54;;;;;;;32.47;24.00;;;-1.90;99.90;;;;;;5068499;28;20329;-85
2022/12/17 16:14:21;;;;;;;46.72;24.35;;;-2.00;99.90;;;;;;5069341;28;20210;-84
2022/12/17 16:16:48;;;;;;;41.30;25.02;;;-1.90;99.90;;;;;;5066320;28;20236;-85
2022/12/17 16:19:16;;;;;;;38.00;20.92;;;-1.90;99.90;;;;;;5064803;28;20862;-84
2022/12/17 16:21:43;;;;;;;41.10;22.75;;;-2.00;99.90;;;;;;5067067;28;20232;-84
2022/12/17 16:24:10;;;;;;;36.92;22.80;;;-2.00;99.90;;;;;;5069068;28;20267;-85
2022/12/17 16:26:38;;;;;;;38.60;24.40;;;-2.00;99.90;;;;;;5064221;28;20202;-85
2022/12/17 16:29:05;;;;;;;36.03;22.52;;;-2.00;99.90;;;;;;5069398;28;20665;-85
2022/12/17 16:31:32;;;;;;;40.08;25.30;;;-2.00;99.90;;;;;;5066899;28;20206;-84
2022/12/17 16:33:59;;;;;;;40.30;23.20;;;-2.10;99.90;;;;;;5065025;28;20208;-85
2022/12/17 16:36:28;;;;;;;35.70;23.35;;;-2.20;99.90;;;;;;5069652;28;20299;-85
2022/12/17 16:38:55;;;;;;;38.97;24.10;;;-2.30;99.90;;;;;;5063562;28;20281;-84
2022/12/17 16:41:22;;;;;;;41.38;23.88;;;-2.30;99.90;;;;;;5066821;28;20790;-84
2022/12/17 16:43:49;;;;;;;36.65;22.70;;;-2.30;99.90;;;;;;5071047;28;20575;-85
2022/12/17 16:46:28;;;;;;;42.55;25.27;;;-2.40;99.90;;;;;;5069548;28;20244;-86
2022/12/17 16:48:57;;;;;;;46.75;26.80;;;-2.50;99.90;;;;;;5063635;28;20264;-86
2022/12/17 16:51:27;;;;;;;44.22;25.50;;;-2.50;99.90;;;;;;5066036;28;20285;-85
2022/12/17 16:53:54;;;;;;;40.03;24.55;;;-2.60;99.90;;;;;;5067432;28;20532;-85
2022/12/17 16:56:24;;;;;;;49.67;27.55;;;-2.60;99.90;;;;;;5068619;28;20236;-85
2022/12/17 16:58:52;;;;;;;46.35;26.15;;;-2.70;99.90;;;;;;5060294;28;20243;-84
2022/12/17 17:01:20;;;;;;;40.85;26.00;;;-2.70;99.90;;;;;;5065089;28;20201;-85
2022/12/17 17:03:47;;;;;;;40.90;25.23;;;-2.90;99.90;;;;;;5065126;28;20237;-85
2022/12/17 17:06:14;;;;;;;47.22;27.05;;;-3.00;99.90;;;;;;5070942;28;20218;-84
2022/12/17 17:08:43;;;;;;;41.95;26.73;;;-3.10;99.90;;;;;;5070306;28;20274;-84
2022/12/17 17:11:12;;;;;;;39.03;23.70;;;-3.30;99.90;;;;;;5074521;28;20633;-84
2022/12/17 17:13:40;;;;;;;43.58;26.15;;;-3.30;99.90;;;;;;5066817;28;20209;-84
2022/12/17 17:16:08;;;;;;;50.00;28.40;;;-3.50;99.90;;;;;;5060892;28;20916;-84
2022/12/17 17:18:36;;;;;;;40.97;25.02;;;-3.60;99.90;;;;;;5063287;28;20208;-84
2022/12/17 17:21:23;;;;;;;40.60;24.50;;;-3.70;99.90;;;;;;5064678;28;20237;-84
2022/12/17 17:23:53;;;;;;;51.53;34.00;;;-3.80;99.90;;;;;;5063286;28;20343;-84
2022/12/17 17:26:21;;;;;;;60.42;33.78;;;-3.80;99.90;;;;;;5073572;28;20237;-83
2022/12/17 17:28:48;;;;;;;62.78;29.80;;;-3.80;99.90;;;;;;5078217;28;20292;-83
2022/12/17 17:31:16;;;;;;;62.80;32.50;;;-3.90;99.90;;;;;;5070817;28;20695;-83
2022/12/17 17:33:46;;;;;;;43.60;26.25;;;-4.00;99.90;;;;;;5070340;28;20260;-84
2022/12/17 17:36:15;;;;;;;51.38;27.48;;;-4.10;99.90;;;;;;5068562;28;20205;-84
2022/12/17 17:38:42;;;;;;;41.80;26.02;;;-4.20;99.90;;;;;;5061983;28;20209;-81
2022/12/17 17:41:12;;;;;;;40.47;25.48;;;-4.30;99.90;;;;;;5068202;28;20730;-81
2022/12/17 17:43:39;;;;;;;40.22;26.30;;;-4.40;99.90;;;;;;5069310;28;20229;-81
2022/12/17 17:46:07;;;;;;;50.50;28.27;;;-4.40;99.90;;;;;;5074657;28;20228;-81
2022/12/17 17:48:34;;;;;;;43.92;25.67;;;-4.50;99.90;;;;;;5065832;28;20205;-81
2022/12/17 17:51:03;;;;;;;44.47;24.48;;;-4.50;99.90;;;;;;5068946;28;20286;-80
2022/12/17 17:53:31;;;;;;;45.20;27.67;;;-4.60;99.90;;;;;;5070175;28;20235;-80
2022/12/17 17:56:03;;;;;;;51.10;26.70;;;-4.50;99.90;;;;;;5079028;28;20592;-80
2022/12/17 17:58:32;;;;;;;51.63;29.02;;;-4.50;99.90;;;;;;5070551;28;20641;-80
2022/12/17 18:00:59;;;;;;;45.00;26.92;;;-4.40;99.90;;;;;;5061019;28;20271;-81
2022/12/17 18:03:28;;;;;;;48.08;26.85;;;-4.30;99.90;;;;;;5060582;28;20709;-80
2022/12/17 18:05:55;;;;;;;44.38;26.65;;;-4.40;99.90;;;;;;5061694;28;20702;-81
2022/12/17 18:08:22;;;;;;;38.75;25.52;;;-4.40;99.90;;;;;;5065511;28;20213;-80
2022/12/17 18:10:56;;;;;;;48.67;28.40;;;-4.60;99.90;;;;;;5066800;28;20225;-81
2022/12/17 18:16:10;;;;;;;64.75;33.50;;;-4.70;99.90;;;;;;5064665;28;20221;-80
2022/12/17 18:18:37;;;;;;;54.80;28.33;;;-4.60;99.90;;;;;;5069756;28;20322;-80
2022/12/17 18:21:07;;;;;;;60.70;29.30;;;-4.60;99.90;;;;;;5066003;28;20256;-80
2022/12/17 18:23:34;;;;;;;51.35;29.70;;;-4.50;99.90;;;;;;5064100;28;20596;-81
2022/12/17 18:26:06;;;;;;;49.40;30.40;;;-4.60;99.90;;;;;;5070014;28;20251;-81
2022/12/17 18:28:33;;;;;;;61.90;35.75;;;-4.60;99.90;;;;;;5062607;28;20711;-81
2022/12/17 18:31:10;;;;;;;54.05;35.75;;;-4.70;99.90;;;;;;5069499;28;20229;-81
2022/12/17 18:33:40;;;;;;;49.00;31.58;;;-4.80;99.90;;;;;;5066237;28;20322;-81
2022/12/17 18:36:12;;;;;;;48.20;27.33;;;-4.90;99.90;;;;;;5065267;28;20291;-81
2022/12/17 18:38:39;;;;;;;45.35;25.08;;;-4.90;99.90;;;;;;5061931;28;20293;-81
2022/12/17 18:43:21;;;;;;;52.60;30.17;;;-4.80;99.90;;;;;;5062630;28;20234;-81
2022/12/17 18:43:54;;;;;;;42.42;25.95;;;-4.90;99.90;;;;;;5064832;28;20280;-81
2022/12/17 18:46:22;;;;;;;55.05;28.52;;;-4.90;99.90;;;;;;5064323;28;20204;-81
2022/12/17 18:48:52;;;;;;;48.13;28.40;;;-5.10;99.90;;;;;;5069541;28;20233;-81
2022/12/17 18:51:19;;;;;;;44.13;28.10;;;-5.20;99.90;;;;;;5066104;28;20209;-80
2022/12/17 18:53:46;;;;;;;50.83;30.20;;;-5.30;99.90;;;;;;5063315;28;20244;-80
2022/12/17 18:56:13;;;;;;;55.15;30.77;;;-5.30;99.90;;;;;;5067031;28;20233;-81
2022/12/17 18:58:40;;;;;;;51.45;28.73;;;-5.30;99.90;;;;;;5067185;28;20319;-80
2022/12/17 19:01:07;;;;;;;50.90;29.33;;;-5.20;99.90;;;;;;5067585;28;21038;-79
2022/12/17 19:03:36;;;;;;;53.30;29.45;;;-5.40;99.90;;;;;;5064992;28;20297;-79
2022/12/17 19:06:06;;;;;;;52.78;27.85;;;-5.60;99.90;;;;;;5070376;28;20209;-83
2022/12/17 19:08:35;;;;;;;56.05;31.35;;;-5.70;99.90;;;;;;5063581;28;20270;-82
2022/12/17 19:11:05;;;;;;;46.65;30.40;;;-5.80;99.90;;;;;;5068884;28;20190;-82
2022/12/17 19:13:32;;;;;;;43.55;26.15;;;-5.80;99.90;;;;;;5063726;28;20290;-82
2022/12/17 19:16:05;;;;;;;49.15;27.85;;;-5.80;99.90;;;;;;5066985;28;20244;-82
2022/12/17 19:18:32;;;;;;;68.38;33.72;;;-5.90;99.90;;;;;;5064866;28;20212;-83
2022/12/17 19:21:01;;;;;;;49.28;30.23;;;-5.90;99.90;;;;;;5063408;28;20232;-83
2022/12/17 19:23:31;;;;;;;49.92;30.77;;;-6.00;99.90;;;;;;5070968;28;20524;-84
2022/12/17 19:26:05;;;;;;;44.72;25.60;;;-6.00;99.90;;;;;;5066511;28;20194;-84
2022/12/17 19:28:32;;;;;;;54.58;31.48;;;-6.00;99.90;;;;;;5071572;28;20235;-84
2022/12/17 19:30:59;;;;;;;56.70;30.98;;;-6.00;99.90;;;;;;5070249;28;20234;-83
2022/12/17 19:33:26;;;;;;;37.42;26.35;;;-6.00;99.90;;;;;;5068441;28;20284;-83
2022/12/17 19:36:03;;;;;;;47.00;29.55;;;-5.90;99.90;;;;;;5067041;28;20266;-83
2022/12/17 19:38:30;;;;;;;57.53;29.70;;;-5.90;99.90;;;;;;5066087;28;20236;-84
2022/12/17 19:41:01;;;;;;;40.13;26.25;;;-5.90;99.90;;;;;;5067487;28;20271;-88
2022/12/17 19:43:28;;;;;;;44.17;25.48;;;-5.90;99.90;;;;;;5065807;28;20241;-83
2022/12/17 19:46:01;;;;;;;48.80;25.80;;;-5.90;99.90;;;;;;5064366;28;20283;-84
2022/12/17 19:48:29;;;;;;;47.25;27.05;;;-5.90;99.90;;;;;;5074492;28;20207;-84
2022/12/17 19:50:57;;;;;;;44.80;25.83;;;-5.90;99.90;;;;;;5074871;28;20601;-83
2022/12/17 19:53:26;;;;;;;47.33;28.40;;;-6.00;99.90;;;;;;5075663;28;20883;-84
2022/12/17 19:55:54;;;;;;;49.13;26.75;;;-6.00;99.90;;;;;;5073054;28;20309;-83
2022/12/17 19:58:21;;;;;;;51.75;26.65;;;-6.00;99.90;;;;;;5071227;28;20650;-83
2022/12/17 20:00:48;;;;;;;63.75;33.20;;;-6.00;99.90;;;;;;5075649;28;20326;-83
2022/12/17 20:03:15;;;;;;;48.78;30.20;;;-6.00;99.90;;;;;;5070591;28;20646;-83
2022/12/17 20:05:43;;;;;;;53.90;29.10;;;-6.10;99.90;;;;;;5069470;28;20255;-85
2022/12/17 20:08:10;;;;;;;60.90;28.17;;;-6.10;99.90;;;;;;5074541;28;21051;-84
2022/12/17 20:10:39;;;;;;;48.92;28.85;;;-6.20;99.90;;;;;;5068590;28;20288;-83
2022/12/17 20:13:06;;;;;;;47.17;27.08;;;-6.20;99.90;;;;;;5070184;28;20337;-83
2022/12/17 20:15:33;;;;;;;49.75;28.52;;;-6.20;99.90;;;;;;5068303;28;20198;-83
2022/12/17 20:18:00;;;;;;;60.58;31.02;;;-6.30;99.90;;;;;;5067595;28;20230;-83
2022/12/17 20:20:26;;;;;;;44.20;26.25;;;-6.20;99.90;;;;;;5074542;28;20248;-83
2022/12/17 20:22:53;;;;;;;45.42;30.90;;;-6.30;99.90;;;;;;5064798;28;20279;-83
2022/12/17 20:25:20;;;;;;;47.50;29.88;;;-6.40;99.90;;;;;;5070320;28;20644;-83
2022/12/17 20:27:49;;;;;;;45.00;29.70;;;-6.30;99.90;;;;;;5069972;28;20284;-83
2022/12/17 20:30:16;;;;;;;54.22;27.60;;;-6.30;99.90;;;;;;5067650;28;20277;-83
2022/12/17 20:32:43;;;;;;;59.95;32.50;;;-6.30;99.90;;;;;;5069869;28;20229;-83
2022/12/17 20:35:10;;;;;;;44.13;28.95;;;-6.20;99.90;;;;;;5070003;28;20245;-83
2022/12/17 20:37:37;;;;;;;50.80;31.15;;;-6.20;99.90;;;;;;5067332;28;20240;-83
2022/12/17 20:40:05;;;;;;;51.90;27.45;;;-6.30;99.90;;;;;;5066017;28;20218;-83
2022/12/17 20:42:32;;;;;;;63.70;32.25;;;-6.40;99.90;;;;;;5069409;28;20275;-83
2022/12/17 20:45:00;;;;;;;53.45;30.95;;;-6.50;99.90;;;;;;5068004;28;20285;-83
2022/12/17 20:47:27;;;;;;;43.17;27.27;;;-6.60;99.90;;;;;;5065066;28;20233;-83
2022/12/17 20:49:54;;;;;;;47.38;27.48;;;-6.60;99.90;;;;;;5064324;28;20237;-85
2022/12/17 20:52:21;;;;;;;51.60;28.38;;;-6.60;99.90;;;;;;5067169;28;20263;-82
2022/12/17 20:54:49;;;;;;;46.80;27.40;;;-6.60;99.90;;;;;;5070974;28;20233;-83
2022/12/17 20:57:16;;;;;;;42.35;24.52;;;-6.70;99.90;;;;;;5067072;28;20212;-84
2022/12/17 20:59:43;;;;;;;46.45;27.25;;;-6.60;99.90;;;;;;5064230;28;20543;-83
2022/12/17 21:02:11;;;;;;;56.40;29.02;;;-6.70;99.90;;;;;;5066020;28;20245;-83
2022/12/17 21:04:38;;;;;;;42.85;27.58;;;-6.70;99.90;;;;;;5070657;28;20237;-82
2022/12/17 21:07:05;;;;;;;41.40;26.77;;;-6.80;99.90;;;;;;5068765;28;20233;-84
2022/12/17 21:09:32;;;;;;;50.05;27.73;;;-6.80;99.90;;;;;;5067770;28;20202;-84
2022/12/17 21:11:59;;;;;;;44.95;26.85;;;-6.80;99.90;;;;;;5062200;28;20229;-83
2022/12/17 21:14:26;;;;;;;47.50;26.42;;;-6.80;99.90;;;;;;5062943;28;20210;-83
2022/12/17 21:16:53;;;;;;;46.92;27.70;;;-6.60;99.90;;;;;;5061760;28;20580;-83
2022/12/17 21:19:21;;;;;;;57.03;30.52;;;-6.40;99.90;;;;;;5060031;28;20294;-83
2022/12/17 21:21:48;;;;;;;49.38;27.23;;;-6.40;99.90;;;;;;5062164;28;20256;-83
2022/12/17 21:24:15;;;;;;;47.40;30.60;;;-6.30;99.90;;;;;;5070032;28;20319;-83
2022/12/17 21:26:44;;;;;;;47.30;28.85;;;-6.40;99.90;;;;;;5062025;28;20643;-83
2022/12/17 21:29:11;;;;;;;56.78;29.73;;;-6.40;99.90;;;;;;5063189;28;20245;-83
2022/12/17 21:31:40;;;;;;;48.33;30.20;;;-6.60;99.90;;;;;;5060549;28;20225;-83
2022/12/17 21:34:10;;;;;;;50.95;28.40;;;-6.60;99.90;;;;;;5064475;28;20212;-83
2022/12/17 21:36:40;;;;;;;47.78;26.95;;;-6.60;99.90;;;;;;5064617;28;20212;-83
2022/12/17 21:39:08;;;;;;;58.88;30.95;;;-6.70;99.90;;;;;;5065051;28;20198;-83
2022/12/17 21:41:36;;;;;;;44.88;27.92;;;-6.60;99.90;;;;;;5070825;28;20318;-83
2022/12/17 21:44:07;;;;;;;51.47;24.92;;;-6.60;99.90;;;;;;5064791;28;20236;-83
2022/12/17 21:46:35;;;;;;;42.45;27.10;;;-6.70;99.90;;;;;;5063932;28;20228;-83
2022/12/17 21:49:03;;;;;;;50.33;27.58;;;-6.70;99.90;;;;;;5062538;28;20305;-83
2022/12/17 21:51:31;;;;;;;40.88;24.15;;;-6.80;99.90;;;;;;5065750;28;20200;-84
2022/12/17 21:54:02;;;;;;;38.90;23.30;;;-6.70;99.90;;;;;;5061284;28;20292;-84
2022/12/17 21:56:29;;;;;;;39.85;25.08;;;-6.80;99.90;;;;;;5063690;28;20231;-84
2022/12/17 21:58:58;;;;;;;44.05;25.65;;;-6.90;99.90;;;;;;5062983;28;20225;-84
2022/12/17 22:01:28;;;;;;;41.72;23.52;;;-7.00;99.90;;;;;;5066807;28;20341;-84
2022/12/17 22:03:57;;;;;;;47.17;26.60;;;-7.00;99.90;;;;;;5063996;28;20330;-84
2022/12/17 22:06:28;;;;;;;42.53;25.30;;;-7.10;99.90;;;;;;5063282;28;20866;-84
2022/12/17 22:08:59;;;;;;;46.90;26.10;;;-7.20;99.90;;;;;;5061059;28;20225;-84
2022/12/17 22:11:27;;;;;;;42.38;24.75;;;-7.20;99.90;;;;;;5067616;28;20225;-84
2022/12/17 22:14:09;;;;;;;45.08;24.58;;;-7.20;99.90;;;;;;5061824;28;20228;-84
2022/12/17 22:16:40;;;;;;;48.10;25.25;;;-7.30;99.90;;;;;;5067068;28;20207;-84
2022/12/17 22:19:09;;;;;;;56.88;27.08;;;-7.30;99.90;;;;;;5068893;28;20228;-84
2022/12/17 22:21:38;;;;;;;38.42;22.98;;;-7.40;99.90;;;;;;5067268;28;20298;-84
2022/12/17 22:24:07;;;;;;;41.33;27.30;;;-7.40;99.90;;;;;;5063032;28;20369;-84
2022/12/17 22:26:34;;;;;;;39.40;25.15;;;-7.40;99.90;;;;;;5065291;28;20298;-84
2022/12/17 22:29:02;;;;;;;49.70;28.40;;;-7.40;99.90;;;;;;5065536;28;20827;-84
2022/12/17 22:34:14;;;;;;;49.00;24.83;;;-7.50;99.90;;;;;;5067835;28;20262;-84
2022/12/17 22:36:41;;;;;;;49.30;28.88;;;-7.60;99.90;;;;;;5066711;28;20290;-84
2022/12/17 22:39:12;;;;;;;48.97;26.83;;;-7.60;99.90;;;;;;5063179;28;20306;-84
2022/12/17 22:44:25;;;;;;;39.63;23.63;;;-7.50;99.90;;;;;;5067153;28;20643;-83
2022/12/17 22:46:52;;;;;;;39.42;23.17;;;-7.40;99.90;;;;;;5066621;28;20233;-83
2022/12/17 22:49:19;;;;;;;40.42;24.67;;;-7.30;99.90;;;;;;5073702;28;20458;-83
2022/12/17 22:51:46;;;;;;;49.20;23.88;;;-7.30;99.90;;;;;;5065165;28;20221;-83
2022/12/17 22:54:15;;;;;;;39.20;23.25;;;-7.30;99.90;;;;;;5065954;28;20233;-83
2022/12/17 22:56:43;;;;;;;39.63;21.92;;;-7.30;99.90;;;;;;5066992;28;20300;-83
2022/12/17 22:59:15;;;;;;;42.20;22.92;;;-7.30;99.90;;;;;;5066908;28;20229;-83
2022/12/17 23:01:43;;;;;;;44.65;24.05;;;-7.30;99.90;;;;;;5071187;28;20239;-83
2022/12/17 23:04:13;;;;;;;38.90;22.13;;;-7.30;99.90;;;;;;5072219;28;20269;-83
2022/12/17 23:06:40;;;;;;;38.50;21.83;;;-7.40;99.90;;;;;;5071276;28;20202;-83
2022/12/17 23:09:07;;;;;;;33.90;19.95;;;-7.50;99.90;;;;;;5068689;28;20504;-83
2022/12/17 23:11:35;;;;;;;37.67;21.13;;;-7.60;99.90;;;;;;5075642;28;20659;-83
2022/12/17 23:14:02;;;;;;;45.70;22.85;;;-7.50;99.90;;;;;;5073214;28;20240;-83
2022/12/17 23:16:29;;;;;;;40.90;21.88;;;-7.50;99.90;;;;;;5068387;28;20235;-83
2022/12/17 23:18:56;;;;;;;60.00;24.73;;;-7.50;99.90;;;;;;5068893;28;20251;-83
2022/12/17 23:21:25;;;;;;;50.05;24.77;;;-7.50;99.90;;;;;;5072623;28;20259;-83
2022/12/17 23:23:53;;;;;;;85.88;36.70;;;-7.50;99.90;;;;;;5071709;28;20549;-83
2022/12/17 23:26:23;;;;;;;47.40;23.77;;;-7.40;99.90;;;;;;5077213;28;20307;-83
2022/12/17 23:28:55;;;;;;;31.98;21.48;;;-7.50;99.90;;;;;;5073481;28;20597;-82
2022/12/17 23:31:22;;;;;;;48.70;24.08;;;-7.50;99.90;;;;;;5073007;28;20215;-83
2022/12/17 23:33:49;;;;;;;62.05;27.40;;;-7.60;99.90;;;;;;5070154;28;20293;-83
2022/12/17 23:36:18;;;;;;;40.45;20.90;;;-7.50;99.90;;;;;;5074379;28;20241;-83
2022/12/17 23:38:46;;;;;;;43.67;22.60;;;-7.50;99.90;;;;;;5065226;28;20274;-83
2022/12/17 23:41:15;;;;;;;47.50;22.48;;;-7.40;99.90;;;;;;5078167;28;20761;-83
2022/12/17 23:43:42;;;;;;;37.65;21.42;;;-7.30;99.90;;;;;;5073317;28;20232;-84
2022/12/17 23:46:11;;;;;;;41.50;22.48;;;-7.40;99.90;;;;;;5067711;28;20296;-83
2022/12/17 23:48:40;;;;;;;34.13;18.70;;;-7.40;99.90;;;;;;5080003;28;20723;-82
2022/12/17 23:51:07;;;;;;;31.63;19.55;;;-7.50;99.90;;;;;;5068962;28;20201;-83
2022/12/17 23:53:35;;;;;;;41.33;19.70;;;-7.60;99.90;;;;;;5072305;28;20717;-82
2022/12/17 23:56:07;;;;;;;43.15;24.30;;;-7.70;99.90;;;;;;5066691;28;20244;-83
2022/12/17 23:58:35;;;;;;;32.88;19.35;;;-7.70;99.90;;;;;;5070998;28;20263;-83
